»·PEaware :: DLH421 KBOS-EDDF

DLH421 :: KBOS-EDDF

FLIGHT INFORMATION

Flight Status: Arrived
Operator:
Lufthansa
More flights by this operator :: More flights under this callsign
Pilot: Andrew J. (13363)
Aircraft: BOEING 747-400 (WINGLETS)
(B744)
More flights by this aircraft type
Origin: KBOS Logan Intl
United States
Destination: EDDF Frankfurt/Main
Germany
More flights between these airports :: More routes between these airports
Route: CELTK4 CELTK FRILL BRADD RAFIN NATV 45N050W NATV ATSUR SLANY UL9 KONAN UL607 SPI UT180 PESOV T180 UNOKO UNOK1R
File this flight plan on PilotEdge
Remarks:
Altitude:
(Current/Filed)
35,000ft
Speed:
(Current/Filed)
460kts
Departed: 02-Feb-17 06:17 PM
Arrived: 02-Feb-17 08:02 PM
Distance/Time
Traveled:
3178nm/1:45
Distance/Time
To Go:
Arrived

Flight Plot

Page will automatically refresh every two minutes.

Flight plan parsing failed; only flown route is shown


Map Options




Map Legend


Flown Route
Filed Route
Departure Airport
Arrival Airport
Navaid (VOR, NDB)
Fix

Horizontal Profiles

Position Reports

Time Latitude Longitude Heading Altitude Ground
Speed
02-Feb-17 18:16 50.648651 -10.102435 78 39853ft 516kts
02-Feb-17 18:17 50.675297 -9.920686 79 39852ft 516kts
02-Feb-17 18:18 50.707316 -9.699594 79 39854ft 516kts
02-Feb-17 18:19 50.738784 -9.479167 79 39872ft 515kts
02-Feb-17 18:20 50.769761 -9.258983 79 39995ft 514kts
02-Feb-17 18:21 50.800324 -9.038510 79 40008ft 513kts
02-Feb-17 18:22 50.825609 -8.853584 80 40016ft 513kts
02-Feb-17 18:23 50.855451 -8.632248 80 40026ft 513kts
02-Feb-17 18:24 50.884749 -8.411574 80 40059ft 512kts
02-Feb-17 18:25 50.913632 -8.190624 80 40073ft 512kts
02-Feb-17 18:26 50.942061 -7.969694 80 40067ft 512kts
02-Feb-17 18:27 50.970059 -7.748584 81 40061ft 511kts
02-Feb-17 18:28 50.993837 -7.557949 81 40055ft 511kts
02-Feb-17 18:29 51.021097 -7.336027 81 40047ft 511kts
02-Feb-17 18:30 51.047831 -7.114728 81 40039ft 510kts
02-Feb-17 18:31 51.074123 -6.893371 82 39998ft 510kts
02-Feb-17 18:32 51.099951 -6.672149 82 39999ft 509kts
02-Feb-17 18:33 51.125448 -6.449939 82 40000ft 509kts
02-Feb-17 18:34 51.150395 -6.228633 82 40103ft 509kts
02-Feb-17 18:35 51.171510 -6.038147 82 40178ft 509kts
02-Feb-17 18:36 51.195673 -5.816455 83 40201ft 508kts
02-Feb-17 18:37 51.219377 -5.594898 83 40222ft 507kts
02-Feb-17 18:38 51.242667 -5.373067 83 40241ft 507kts
02-Feb-17 18:39 51.265593 -5.150472 83 40288ft 507kts
02-Feb-17 18:40 51.288031 -4.928315 84 40307ft 507kts
02-Feb-17 18:41 51.310020 -4.706233 84 40315ft 506kts
02-Feb-17 18:42 51.328325 -4.517868 84 40318ft 505kts
02-Feb-17 18:43 51.349485 -4.295949 84 40341ft 505kts
02-Feb-17 18:44 51.370281 -4.073217 84 40351ft 505kts
02-Feb-17 18:45 51.390591 -3.851003 84 40369ft 505kts
02-Feb-17 18:46 51.410476 -3.628634 85 40368ft 505kts
02-Feb-17 18:47 51.429933 -3.406158 85 40372ft 505kts
02-Feb-17 18:48 51.446456 -3.213176 85 40400ft 504kts
02-Feb-17 18:49 51.465097 -2.990722 85 40396ft 504kts
02-Feb-17 18:50 51.483353 -2.767637 85 40398ft 503kts
02-Feb-17 18:51 51.501100 -2.545470 86 40397ft 502kts
02-Feb-17 18:52 51.518391 -2.323623 86 40387ft 501kts
02-Feb-17 18:53 51.535842 -2.102081 86 40401ft 500kts
02-Feb-17 18:54 51.551853 -1.880610 86 40418ft 499kts
02-Feb-17 18:55 51.558455 -1.688693 100 40435ft 494kts
02-Feb-17 18:56 51.524608 -1.477099 108 40434ft 488kts
02-Feb-17 18:57 51.497409 -1.263298 105 40453ft 491kts
02-Feb-17 18:58 51.470938 -1.048555 104 40457ft 491kts
02-Feb-17 18:59 51.443644 -0.833270 105 40466ft 492kts
02-Feb-17 19:00 51.416791 -0.618539 104 40478ft 492kts
02-Feb-17 19:01 51.390279 -0.411912 105 40489ft 492kts
02-Feb-17 19:02 51.365209 -0.222824 105 40514ft 492kts
02-Feb-17 19:03 51.336852 -0.008696 105 40469ft 492kts
02-Feb-17 19:04 51.310289 0.203268 106 40472ft 479kts
02-Feb-17 19:05 51.284597 0.412525 105 40498ft 482kts
02-Feb-17 19:06 51.258492 0.622418 106 40520ft 482kts
02-Feb-17 19:07 51.231791 0.831343 106 40546ft 480kts
02-Feb-17 19:08 51.208785 1.010872 106 40563ft 480kts
02-Feb-17 19:09 51.181732 1.218646 106 40567ft 478kts
02-Feb-17 19:10 51.158655 1.427071 99 40577ft 480kts
02-Feb-17 19:11 51.149965 1.639903 99 40584ft 482kts
02-Feb-17 19:12 51.138807 1.852869 99 40613ft 481kts
02-Feb-17 19:13 51.127530 2.064775 99 40623ft 479kts
02-Feb-17 19:14 51.116773 2.275501 99 40632ft 478kts
02-Feb-17 19:15 51.106414 2.456558 100 40636ft 478kts
02-Feb-17 19:16 51.092019 2.666288 106 40639ft 475kts
02-Feb-17 19:17 51.056159 2.866721 111 40638ft 470kts
02-Feb-17 19:18 51.019106 3.065296 111 40638ft 469kts
02-Feb-17 19:19 50.983278 3.265268 110 40642ft 470kts
02-Feb-17 19:20 50.945967 3.463480 111 40646ft 469kts
02-Feb-17 19:21 50.911267 3.646009 111 40651ft 469kts
02-Feb-17 19:22 50.875393 3.830030 111 40660ft 468kts
02-Feb-17 19:23 50.836528 4.027274 111 40671ft 468kts
02-Feb-17 19:24 50.798787 4.224339 111 40673ft 469kts
02-Feb-17 19:25 50.759471 4.420708 112 40672ft 469kts
02-Feb-17 19:26 50.719945 4.616616 111 40690ft 469kts
02-Feb-17 19:27 50.684987 4.797147 111 40697ft 470kts
02-Feb-17 19:28 50.653283 4.956934 112 40697ft 470kts
02-Feb-17 19:29 50.614822 5.143135 111 40698ft 471kts
02-Feb-17 19:30 50.575121 5.338717 112 39764ft 466kts
02-Feb-17 19:31 50.534718 5.530541 112 37181ft 453kts
02-Feb-17 19:32 50.497550 5.715777 111 35020ft 437kts
02-Feb-17 19:33 50.464220 5.895482 110 32861ft 423kts
02-Feb-17 19:34 50.431642 6.069971 111 31208ft 420kts
02-Feb-17 19:35 50.401715 6.225189 111 30331ft 422kts
02-Feb-17 19:36 50.367851 6.399539 110 29330ft 416kts
02-Feb-17 19:37 50.379875 6.578187 71 28330ft 433kts
02-Feb-17 19:38 50.426732 6.751431 71 27331ft 429kts
02-Feb-17 19:39 50.448444 6.931990 88 26327ft 416kts
02-Feb-17 19:40 50.456339 7.111988 94 24553ft 411kts
02-Feb-17 19:41 50.450117 7.268892 104 22347ft 404kts
02-Feb-17 19:42 50.389241 7.397788 149 19888ft 375kts
02-Feb-17 19:43 50.296381 7.460853 153 17686ft 362kts
02-Feb-17 19:44 50.216359 7.555748 144 15499ft 354kts
02-Feb-17 19:45 50.142137 7.646485 145 13704ft 326kts
02-Feb-17 19:46 50.068383 7.718907 157 12588ft 313kts
02-Feb-17 19:47 49.989395 7.777557 156 11922ft 314kts
02-Feb-17 19:48 49.920584 7.829749 156 11340ft 311kts
02-Feb-17 19:49 49.883241 7.940285 83 10520ft 321kts
02-Feb-17 19:50 49.913295 8.064045 68 9858ft 296kts
02-Feb-17 19:51 49.942501 8.182684 70 8927ft 294kts
02-Feb-17 19:52 49.972025 8.301620 72 6532ft 292kts
02-Feb-17 19:53 49.999095 8.415299 71 4033ft 262kts
02-Feb-17 19:54 49.987071 8.493266 168 3349ft 193kts
02-Feb-17 19:55 49.948370 8.463958 231 3277ft 183kts
02-Feb-17 19:56 49.928337 8.391056 250 3189ft 185kts
02-Feb-17 19:57 49.956059 8.341328 355 3022ft 199kts
02-Feb-17 19:58 49.994392 8.392857 68 2252ft 187kts
02-Feb-17 19:59 50.009872 8.460306 69 1362ft 149kts
02-Feb-17 20:00 50.024289 8.520322 69 584ft 146kts
02-Feb-17 20:01 50.034736 8.564518 67 377ft 71kts
02-Feb-17 20:02 50.039050 8.573240 37 377ft 18kts
02-Feb-17 20:03 50.040911 8.578153 337 377ft 5kts
02-Feb-17 20:04 50.044469 8.576214 35 377ft 11kts
02-Feb-17 20:05 50.045653 8.581055 69 377ft 17kts
02-Feb-17 20:06 50.047891 8.584507 342 377ft 11kts
02-Feb-17 20:07 50.049813 8.584276 336 377ft 0kts
02-Feb-17 20:08 50.049832 8.584263 336 377ft 0kts
02-Feb-17 20:09 50.049832 8.584263 336 377ft 0kts
02-Feb-17 20:10 50.049832 8.584263 336 377ft 0kts
02-Feb-17 20:11 50.049832 8.584263 336 377ft 0kts
02-Feb-17 20:12 50.049832 8.584263 336 377ft 0kts
02-Feb-17 20:13 50.049832 8.584263 336 377ft 0kts
02-Feb-17 20:14 50.049832 8.584263 336 377ft 0kts
02-Feb-17 20:15 50.049832 8.584263 336 377ft 0kts
02-Feb-17 20:16 50.049832 8.584263 336 377ft 0kts

Navigation Log

Ident Type
Flight plan parsing failed, navigation log unavailable